createdAt,value
2022-09-29T00:02:09.963Z,8.40
2022-09-29T00:04:36.458Z,9.43
2022-09-29T00:07:02.967Z,8.32
2022-09-29T00:09:29.646Z,8.90
2022-09-29T00:11:56.740Z,8.60
2022-09-29T00:14:24.014Z,9.50
2022-09-29T00:16:50.695Z,9.13
2022-09-29T00:19:17.644Z,9.80
2022-09-29T00:21:44.203Z,8.25
2022-09-29T00:24:10.778Z,9.30
2022-09-29T00:26:37.239Z,9.10
2022-09-29T00:29:04.345Z,6.65
2022-09-29T00:31:32.714Z,7.82
2022-09-29T00:33:59.466Z,8.10
2022-09-29T00:36:30.009Z,6.97
2022-09-29T00:38:57.369Z,7.10
2022-09-29T00:41:26.672Z,6.95
2022-09-29T00:44:19.490Z,11.88
2022-09-29T00:47:01.796Z,6.70
2022-09-29T00:49:51.804Z,6.10
2022-09-29T00:52:33.131Z,8.95
2022-09-29T00:55:04.460Z,6.93
2022-09-29T00:57:34.738Z,7.50
2022-09-29T01:00:06.657Z,7.25
2022-09-29T01:02:34.288Z,7.03
2022-09-29T01:05:01.805Z,6.47
2022-09-29T01:07:29.592Z,7.80
2022-09-29T01:09:57.130Z,7.60
2022-09-29T01:12:24.155Z,7.97
2022-09-29T01:14:55.770Z,8.07
2022-09-29T01:17:22.887Z,6.55
2022-09-29T01:20:07.679Z,7.70
2022-09-29T01:22:46.955Z,6.45
2022-09-29T01:25:47.597Z,7.97
2022-09-29T01:28:26.240Z,9.67
2022-09-29T01:31:31.148Z,7.63
2022-09-29T01:34:03.825Z,7.18
2022-09-29T01:36:52.376Z,8.32
2022-09-29T01:39:25.047Z,6.57
2022-09-29T01:42:04.474Z,6.77
2022-09-29T01:44:50.698Z,7.13
2022-09-29T01:47:27.133Z,6.43
2022-09-29T01:50:01.141Z,8.13
2022-09-29T01:52:30.265Z,7.63
2022-09-29T01:55:10.581Z,7.57
2022-09-29T01:57:46.987Z,9.30
2022-09-29T02:00:15.617Z,9.20
2022-09-29T02:02:59.147Z,10.95
2022-09-29T02:05:30.472Z,7.22
2022-09-29T02:08:02.200Z,6.20
2022-09-29T02:10:32.746Z,10.23
2022-09-29T02:13:01.181Z,7.45
2022-09-29T02:15:32.577Z,7.75
2022-09-29T02:18:02.618Z,8.35
2022-09-29T02:20:29.182Z,7.17
2022-09-29T02:22:56.026Z,7.72
2022-09-29T02:25:23.858Z,7.05
2022-09-29T02:27:51.486Z,11.13
2022-09-29T02:30:18.181Z,7.30
2022-09-29T02:32:47.331Z,8.50
2022-09-29T02:35:15.511Z,7.55
2022-09-29T02:38:14.504Z,7.80
2022-09-29T02:40:57.179Z,7.07
2022-09-29T02:43:56.079Z,7.90
2022-09-29T02:46:43.017Z,7.83
2022-09-29T02:49:27.612Z,6.32
2022-09-29T02:52:07.108Z,10.50
2022-09-29T02:55:01.884Z,6.38
2022-09-29T02:57:55.816Z,7.00
2022-09-29T03:00:22.824Z,8.23
2022-09-29T03:02:49.321Z,9.07
2022-09-29T03:05:18.314Z,6.75
2022-09-29T03:07:44.820Z,8.43
2022-09-29T03:10:12.934Z,8.10
2022-09-29T03:12:39.575Z,9.00
2022-09-29T03:15:07.328Z,7.90
2022-09-29T03:17:34.082Z,8.93
2022-09-29T03:20:00.755Z,9.32
2022-09-29T03:22:27.406Z,8.02
2022-09-29T03:24:53.888Z,8.40
2022-09-29T03:27:20.454Z,9.45
2022-09-29T03:29:46.954Z,8.45
2022-09-29T03:32:13.486Z,9.00
2022-09-29T03:34:39.946Z,9.88
2022-09-29T03:37:06.448Z,9.07
2022-09-29T03:39:32.958Z,9.85
2022-09-29T03:42:00.312Z,7.07
2022-09-29T03:44:26.972Z,7.95
2022-09-29T03:46:53.430Z,9.20
2022-09-29T03:49:22.540Z,10.23
2022-09-29T03:51:49.003Z,7.88
2022-09-29T03:54:15.481Z,10.68
2022-09-29T03:56:42.005Z,7.50
2022-09-29T03:59:12.116Z,9.88
2022-09-29T04:01:39.024Z,6.57
2022-09-29T04:04:06.903Z,8.50
2022-09-29T04:06:33.969Z,7.10
2022-09-29T04:09:00.407Z,8.68
2022-09-29T04:11:26.870Z,5.88
2022-09-29T04:13:53.387Z,8.00
2022-09-29T04:16:20.006Z,8.98
2022-09-29T04:18:46.595Z,7.05
2022-09-29T04:21:13.156Z,6.45
2022-09-29T04:23:39.673Z,9.60
2022-09-29T04:26:06.126Z,7.83
2022-09-29T04:28:34.458Z,7.25
2022-09-29T04:31:02.311Z,8.35
2022-09-29T04:33:30.056Z,7.30
2022-09-29T04:35:57.187Z,9.35
2022-09-29T04:38:23.932Z,8.30
2022-09-29T04:40:50.690Z,9.45
2022-09-29T04:43:17.396Z,11.05
2022-09-29T04:45:45.693Z,9.45
2022-09-29T04:48:12.708Z,8.18
2022-09-29T04:50:39.281Z,8.07
2022-09-29T04:53:07.280Z,10.27
2022-09-29T04:55:33.929Z,8.68
2022-09-29T04:58:00.420Z,9.80
2022-09-29T05:00:26.878Z,9.77
2022-09-29T05:02:53.341Z,11.07
2022-09-29T05:05:19.856Z,9.20
2022-09-29T05:07:46.481Z,9.98
2022-09-29T05:10:12.913Z,9.25
2022-09-29T05:12:39.411Z,10.13
2022-09-29T05:15:06.664Z,14.40
2022-09-29T05:17:33.814Z,10.40
2022-09-29T05:20:00.373Z,10.10
2022-09-29T05:22:28.126Z,11.73
2022-09-29T05:24:54.570Z,12.57
2022-09-29T05:27:22.323Z,12.17
2022-09-29T05:29:49.363Z,11.70
2022-09-29T05:32:16.104Z,11.85
2022-09-29T05:34:42.687Z,14.23
2022-09-29T05:37:09.825Z,11.45
2022-09-29T05:39:37.257Z,12.23
2022-09-29T05:42:06.447Z,11.45
2022-09-29T05:44:33.811Z,13.82
2022-09-29T05:47:00.338Z,13.25
2022-09-29T05:49:26.879Z,11.68
2022-09-29T05:51:53.642Z,12.63
2022-09-29T05:54:20.210Z,12.57
2022-09-29T05:56:47.181Z,12.55
2022-09-29T05:59:15.216Z,11.18
2022-09-29T06:01:42.323Z,10.98
2022-09-29T06:04:08.816Z,11.60
2022-09-29T06:06:36.668Z,11.38
2022-09-29T06:09:03.632Z,11.27
2022-09-29T06:11:33.737Z,11.18
2022-09-29T06:14:01.941Z,11.25
2022-09-29T06:16:30.203Z,10.40
2022-09-29T06:18:56.915Z,10.68
2022-09-29T06:21:25.430Z,10.30
2022-09-29T06:23:54.038Z,9.50
2022-09-29T06:26:23.896Z,11.68
2022-09-29T06:28:51.896Z,10.33
2022-09-29T06:31:22.098Z,13.93
2022-09-29T06:33:48.660Z,11.13
2022-09-29T06:36:38.611Z,10.48
2022-09-29T06:39:06.174Z,12.18
2022-09-29T06:41:33.115Z,10.27
2022-09-29T06:43:59.580Z,12.98
2022-09-29T06:46:27.014Z,11.38
2022-09-29T06:48:54.413Z,13.15
2022-09-29T06:51:29.239Z,12.95
2022-09-29T06:54:11.112Z,10.33
2022-09-29T06:56:38.727Z,10.73
2022-09-29T06:59:05.522Z,11.68
2022-09-29T07:01:32.063Z,10.60
2022-09-29T07:04:00.725Z,10.82
2022-09-29T07:06:27.404Z,10.83
2022-09-29T07:08:54.438Z,9.70
2022-09-29T07:11:21.012Z,11.20
2022-09-29T07:13:52.273Z,9.85
2022-09-29T07:16:23.675Z,10.60
2022-09-29T07:18:51.198Z,9.73
2022-09-29T07:21:18.570Z,9.35
2022-09-29T07:23:46.137Z,9.48
2022-09-29T07:26:13.194Z,12.05
2022-09-29T07:28:39.837Z,9.23
2022-09-29T07:31:15.237Z,9.30
2022-09-29T07:33:43.504Z,7.25
2022-09-29T07:36:10.314Z,8.05
2022-09-29T07:38:36.889Z,7.57
2022-09-29T07:41:06.407Z,9.38
2022-09-29T07:43:33.203Z,8.07
2022-09-29T07:46:00.427Z,9.23
2022-09-29T07:48:31.401Z,7.75
2022-09-29T07:51:18.610Z,10.15
2022-09-29T07:53:45.783Z,9.10
2022-09-29T07:56:18.565Z,8.43
2022-09-29T07:58:46.478Z,7.53
2022-09-29T08:01:15.730Z,8.43
2022-09-29T08:03:50.337Z,8.60
2022-09-29T08:06:16.898Z,8.10
2022-09-29T08:08:51.265Z,11.03
2022-09-29T08:11:30.055Z,8.02
2022-09-29T08:13:57.190Z,8.55
2022-09-29T08:16:23.896Z,7.03
2022-09-29T08:18:50.524Z,7.60
2022-09-29T08:21:17.106Z,6.57
2022-09-29T08:23:43.931Z,7.55
2022-09-29T08:26:14.231Z,7.80
2022-09-29T08:28:41.313Z,8.27
2022-09-29T08:31:10.543Z,6.13
2022-09-29T08:33:37.201Z,6.37
2022-09-29T08:36:14.363Z,6.10
2022-09-29T08:38:45.038Z,7.95
2022-09-29T08:41:39.432Z,6.25
2022-09-29T08:44:29.751Z,6.70
2022-09-29T08:47:15.414Z,5.87
2022-09-29T08:49:55.676Z,7.80
2022-09-29T08:52:23.323Z,6.68
2022-09-29T08:54:53.114Z,6.70
2022-09-29T08:57:20.285Z,8.23
2022-09-29T08:59:58.615Z,6.30
2022-09-29T09:02:43.663Z,8.50
2022-09-29T09:05:17.226Z,6.95
2022-09-29T09:08:11.429Z,6.40
2022-09-29T09:10:47.531Z,7.00
2022-09-29T09:13:53.572Z,6.63
2022-09-29T09:16:42.490Z,9.10
2022-09-29T09:19:30.315Z,8.25
2022-09-29T09:22:20.586Z,5.75
2022-09-29T09:25:25.611Z,6.45
2022-09-29T09:28:04.197Z,7.00
2022-09-29T09:30:37.692Z,6.40
2022-09-29T09:33:08.040Z,7.72
2022-09-29T09:35:51.055Z,6.72
2022-09-29T09:38:28.525Z,5.78
2022-09-29T09:40:57.067Z,7.87
2022-09-29T09:43:39.043Z,8.30
2022-09-29T09:46:17.404Z,6.07
2022-09-29T09:48:51.725Z,5.50
2022-09-29T09:51:32.697Z,7.18
2022-09-29T09:54:02.326Z,6.97
2022-09-29T09:56:55.260Z,8.80
2022-09-29T09:59:45.138Z,10.27
2022-09-29T10:02:22.075Z,8.52
2022-09-29T10:04:51.353Z,6.75
2022-09-29T10:07:22.785Z,7.00
2022-09-29T10:09:50.322Z,6.20
2022-09-29T10:12:22.626Z,5.38
2022-09-29T10:15:00.012Z,5.20
2022-09-29T10:17:32.019Z,5.90
2022-09-29T10:20:08.865Z,6.00
2022-09-29T10:22:35.859Z,7.15
2022-09-29T10:25:15.693Z,6.57
2022-09-29T10:27:44.256Z,6.95
2022-09-29T10:30:24.023Z,6.68
2022-09-29T10:32:56.314Z,5.63
2022-09-29T10:35:25.489Z,5.95
2022-09-29T10:38:03.254Z,5.53
2022-09-29T10:40:29.849Z,6.45
2022-09-29T10:42:57.283Z,6.55
2022-09-29T10:45:26.314Z,6.27
2022-09-29T10:47:58.716Z,6.93
2022-09-29T10:50:27.012Z,5.97
2022-09-29T10:53:01.298Z,8.70
2022-09-29T10:55:47.485Z,6.07
2022-09-29T10:58:44.253Z,7.43
2022-09-29T11:01:09.775Z,6.78
2022-09-29T11:03:39.699Z,6.00
2022-09-29T11:06:12.800Z,6.45
2022-09-29T11:09:03.842Z,5.65
2022-09-29T11:11:56.551Z,6.27
2022-09-29T11:14:46.740Z,7.25
2022-09-29T11:17:27.491Z,7.75
2022-09-29T11:19:57.982Z,5.97
2022-09-29T11:22:43.321Z,7.47
2022-09-29T11:25:42.321Z,6.17
2022-09-29T11:28:20.458Z,7.65
2022-09-29T11:30:50.923Z,6.63
2022-09-29T11:33:56.564Z,5.30
2022-09-29T11:36:27.720Z,6.55
2022-09-29T11:39:32.222Z,8.00
2022-09-29T11:42:29.689Z,5.35
2022-09-29T11:45:00.965Z,5.50
2022-09-29T11:47:41.320Z,6.63
2022-09-29T11:50:34.722Z,6.60
2022-09-29T11:53:01.279Z,5.40
2022-09-29T11:55:50.158Z,4.70
2022-09-29T11:58:49.019Z,7.22
2022-09-29T12:01:52.542Z,7.40
2022-09-29T12:04:58.339Z,6.82
2022-09-29T12:07:33.848Z,5.10
2022-09-29T12:10:45.591Z,4.63
2022-09-29T12:13:37.890Z,6.13
2022-09-29T12:16:10.628Z,5.90
2022-09-29T12:18:41.163Z,7.35
2022-09-29T12:21:10.391Z,5.57
2022-09-29T12:23:39.422Z,5.82
2022-09-29T12:26:21.461Z,6.28
2022-09-29T12:29:13.667Z,6.20
2022-09-29T12:31:50.404Z,4.45
2022-09-29T12:34:34.527Z,4.47
2022-09-29T12:37:05.858Z,5.25
2022-09-29T12:39:34.608Z,5.05
2022-09-29T12:42:30.862Z,5.43
2022-09-29T12:45:16.997Z,3.17
2022-09-29T12:48:05.074Z,4.10
2022-09-29T12:50:44.887Z,4.80
2022-09-29T12:53:23.641Z,4.25
2022-09-29T12:56:10.760Z,4.35
2022-09-29T12:58:48.438Z,5.25
2022-09-29T13:01:31.933Z,5.83
2022-09-29T13:04:06.487Z,4.45
2022-09-29T13:06:47.929Z,5.25
2022-09-29T13:09:17.443Z,5.15
2022-09-29T13:12:16.380Z,4.75
2022-09-29T13:15:06.518Z,4.73
2022-09-29T13:17:56.268Z,7.28
2022-09-29T13:20:34.861Z,4.93
2022-09-29T13:23:34.202Z,5.60
2022-09-29T13:26:29.297Z,7.13
2022-09-29T13:29:18.653Z,6.87
2022-09-29T13:31:46.579Z,8.25
2022-09-29T13:34:34.785Z,4.30
2022-09-29T13:37:17.289Z,6.55
2022-09-29T13:40:02.593Z,3.80
2022-09-29T13:42:58.151Z,5.40
2022-09-29T13:45:27.976Z,4.55
2022-09-29T13:47:59.283Z,5.13
2022-09-29T13:50:44.411Z,4.35
2022-09-29T13:53:23.361Z,5.45
2022-09-29T13:55:56.388Z,4.57
2022-09-29T13:58:34.170Z,5.55
2022-09-29T14:01:05.870Z,5.63
2022-09-29T14:03:43.044Z,4.78
2022-09-29T14:06:40.192Z,4.75
2022-09-29T14:09:12.392Z,3.97
2022-09-29T14:11:42.862Z,4.70
2022-09-29T14:14:24.450Z,5.68
2022-09-29T14:16:53.390Z,5.35
2022-09-29T14:19:35.750Z,5.32
2022-09-29T14:22:07.040Z,5.40
2022-09-29T14:24:42.663Z,5.85
2022-09-29T14:27:28.205Z,5.03
2022-09-29T14:30:09.657Z,5.00
2022-09-29T14:32:46.064Z,5.47
2022-09-29T14:35:41.222Z,4.30
2022-09-29T14:38:57.864Z,4.35
2022-09-29T14:41:44.106Z,6.10
2022-09-29T14:44:25.566Z,6.47
2022-09-29T14:47:39.487Z,5.25
2022-09-29T14:50:55.749Z,5.30
2022-09-29T14:53:40.223Z,4.70
2022-09-29T14:56:15.833Z,4.80
2022-09-29T14:59:35.524Z,6.90
2022-09-29T15:02:17.437Z,7.15
2022-09-29T15:04:44.913Z,6.93
2022-09-29T15:07:14.257Z,6.20
2022-09-29T15:09:45.914Z,7.22
2022-09-29T15:12:18.880Z,6.32
2022-09-29T15:14:45.384Z,8.57
2022-09-29T15:17:31.865Z,5.77
2022-09-29T15:20:01.417Z,11.40
2022-09-29T15:23:04.936Z,9.20
2022-09-29T15:25:32.823Z,7.85
2022-09-29T15:28:06.682Z,7.80
2022-09-29T15:30:33.403Z,6.80
2022-09-29T15:33:27.707Z,8.38
2022-09-29T15:36:01.400Z,6.38
2022-09-29T15:38:32.699Z,6.82
2022-09-29T15:41:03.858Z,7.10
2022-09-29T15:43:51.844Z,6.87
2022-09-29T15:46:24.110Z,6.72
2022-09-29T15:49:09.491Z,7.95
2022-09-29T15:51:36.398Z,7.53
2022-09-29T15:54:04.954Z,6.07
2022-09-29T15:56:32.247Z,7.70
2022-09-29T15:58:58.797Z,6.22
2022-09-29T16:01:25.385Z,8.73
2022-09-29T16:04:01.719Z,6.53
2022-09-29T16:06:28.230Z,6.25
2022-09-29T16:08:57.311Z,7.43
2022-09-29T16:11:42.131Z,7.22
2022-09-29T16:14:09.205Z,7.22
2022-09-29T16:16:40.796Z,7.38
2022-09-29T16:19:14.714Z,6.50
2022-09-29T16:21:42.185Z,7.37
2022-09-29T16:24:12.672Z,10.88
2022-09-29T16:26:47.889Z,8.85
2022-09-29T16:29:20.353Z,7.30
2022-09-29T16:31:48.445Z,8.07
2022-09-29T16:34:26.223Z,9.37
2022-09-29T16:37:00.354Z,7.22
2022-09-29T16:39:29.326Z,8.20
2022-09-29T16:41:58.755Z,8.32
2022-09-29T16:44:34.120Z,8.32
2022-09-29T16:47:09.930Z,10.20
2022-09-29T16:49:38.700Z,9.82
2022-09-29T16:52:13.031Z,12.85
2022-09-29T16:54:52.361Z,10.23
2022-09-29T16:57:34.272Z,11.07
2022-09-29T17:00:05.996Z,10.87
2022-09-29T17:02:33.072Z,10.05
2022-09-29T17:05:01.292Z,10.63
2022-09-29T17:07:28.746Z,8.73
2022-09-29T17:09:57.666Z,9.18
2022-09-29T17:12:25.548Z,9.23
2022-09-29T17:14:52.055Z,10.38
2022-09-29T17:17:26.148Z,11.48
2022-09-29T17:19:57.639Z,10.43
2022-09-29T17:22:30.391Z,10.57
2022-09-29T17:24:57.847Z,10.20
2022-09-29T17:27:44.294Z,13.15
2022-09-29T17:30:14.334Z,10.60
2022-09-29T17:32:42.284Z,10.45
2022-09-29T17:35:09.489Z,11.90
2022-09-29T17:37:36.216Z,9.60
2022-09-29T17:40:03.707Z,9.02
2022-09-29T17:42:30.229Z,7.93
2022-09-29T17:44:57.671Z,8.18
2022-09-29T17:47:28.305Z,7.28
2022-09-29T17:49:56.304Z,8.33
2022-09-29T17:52:23.016Z,9.07
2022-09-29T17:54:49.507Z,8.93
2022-09-29T17:57:23.808Z,8.00
2022-09-29T17:59:50.594Z,8.00
2022-09-29T18:02:17.597Z,8.67
2022-09-29T18:04:48.346Z,7.38
2022-09-29T18:07:17.945Z,6.55
2022-09-29T18:09:47.495Z,8.52
2022-09-29T18:12:15.309Z,5.63
2022-09-29T18:14:41.762Z,6.93
2022-09-29T18:17:09.514Z,11.85
2022-09-29T18:19:40.315Z,8.98
2022-09-29T18:22:07.953Z,9.35
2022-09-29T18:24:47.094Z,9.43
2022-09-29T18:27:14.924Z,9.83
2022-09-29T18:29:41.466Z,7.20
2022-09-29T18:32:11.196Z,8.45
2022-09-29T18:34:37.683Z,8.68
2022-09-29T18:37:04.785Z,7.38
2022-09-29T18:39:31.594Z,7.80
2022-09-29T18:42:04.271Z,7.75
2022-09-29T18:44:33.501Z,6.97
2022-09-29T18:47:00.999Z,8.00
2022-09-29T18:49:31.599Z,9.73
2022-09-29T18:51:59.624Z,8.63
2022-09-29T18:54:26.241Z,8.82
2022-09-29T18:56:54.713Z,8.77
2022-09-29T18:59:21.752Z,9.55
2022-09-29T19:01:48.433Z,9.68
2022-09-29T19:04:15.400Z,7.57
2022-09-29T19:06:41.851Z,9.02
2022-09-29T19:09:08.513Z,10.93
2022-09-29T19:11:35.161Z,7.15
2022-09-29T19:14:02.309Z,9.57
2022-09-29T19:16:30.933Z,7.33
2022-09-29T19:18:57.569Z,7.82
2022-09-29T19:21:24.953Z,9.65
2022-09-29T19:23:51.450Z,10.00
2022-09-29T19:26:19.780Z,7.90
2022-09-29T19:28:48.105Z,9.37
2022-09-29T19:31:22.077Z,8.40
2022-09-29T19:33:48.997Z,9.10
2022-09-29T19:36:20.048Z,8.32
2022-09-29T19:38:47.087Z,9.82
2022-09-29T19:41:22.060Z,8.83
2022-09-29T19:43:50.360Z,9.50
2022-09-29T19:46:19.034Z,9.57
2022-09-29T19:48:45.646Z,9.18
2022-09-29T19:51:35.588Z,10.80
2022-09-29T19:54:19.010Z,9.90
2022-09-29T19:56:49.009Z,9.38
2022-09-29T19:59:17.854Z,10.52
2022-09-29T20:01:45.645Z,8.95
2022-09-29T20:04:14.163Z,8.27
2022-09-29T20:06:41.069Z,9.90
2022-09-29T20:09:08.357Z,11.73
2022-09-29T20:11:37.081Z,9.43
2022-09-29T20:14:05.154Z,11.18
2022-09-29T20:16:34.327Z,9.05
2022-09-29T20:19:01.137Z,10.10
2022-09-29T20:21:27.880Z,9.45
2022-09-29T20:23:54.409Z,9.80
2022-09-29T20:26:23.685Z,9.73
2022-09-29T20:28:50.184Z,11.55
2022-09-29T20:31:16.741Z,9.13
2022-09-29T20:33:44.459Z,10.80
2022-09-29T20:36:10.986Z,10.45
2022-09-29T20:38:41.755Z,11.20
2022-09-29T20:41:08.532Z,11.35
2022-09-29T20:43:35.711Z,13.70
2022-09-29T20:46:04.381Z,10.05
2022-09-29T20:48:32.193Z,10.43
2022-09-29T20:51:01.919Z,9.98
2022-09-29T20:53:29.121Z,10.27
2022-09-29T20:56:06.061Z,13.13
2022-09-29T20:58:33.331Z,11.45
2022-09-29T21:01:20.983Z,12.27
2022-09-29T21:03:52.413Z,15.13
2022-09-29T21:06:20.422Z,13.35
2022-09-29T21:08:47.207Z,11.17
2022-09-29T21:11:13.939Z,13.20
2022-09-29T21:13:40.997Z,13.35
2022-09-29T21:16:08.025Z,13.57
2022-09-29T21:18:35.061Z,13.57
2022-09-29T21:21:04.586Z,13.37
2022-09-29T21:23:32.465Z,13.65
2022-09-29T21:26:17.287Z,10.88
2022-09-29T21:28:48.685Z,11.40
2022-09-29T21:31:19.859Z,11.30
2022-09-29T21:33:51.487Z,13.77
2022-09-29T21:36:18.028Z,11.05
2022-09-29T21:38:45.087Z,14.88
2022-09-29T21:41:21.819Z,10.85
2022-09-29T21:43:51.469Z,9.98
2022-09-29T21:46:21.184Z,11.57
2022-09-29T21:48:55.815Z,12.93
2022-09-29T21:51:25.178Z,12.57
2022-09-29T21:53:52.840Z,13.93
2022-09-29T21:56:21.414Z,12.05
2022-09-29T21:58:51.804Z,12.57
2022-09-29T22:01:18.541Z,10.75
2022-09-29T22:03:47.491Z,10.93
2022-09-29T22:06:22.513Z,9.60
2022-09-29T22:08:50.178Z,12.80
2022-09-29T22:11:21.553Z,13.00
2022-09-29T22:13:52.061Z,12.25
2022-09-29T22:16:20.852Z,14.00
2022-09-29T22:18:56.260Z,12.13
2022-09-29T22:21:32.678Z,12.85
2022-09-29T22:24:03.161Z,13.03
2022-09-29T22:26:30.412Z,13.32
2022-09-29T22:28:59.451Z,12.80
2022-09-29T22:31:28.033Z,16.88
2022-09-29T22:33:57.271Z,12.23
2022-09-29T22:36:25.701Z,13.07
2022-09-29T22:38:52.409Z,12.07
2022-09-29T22:41:22.974Z,13.40
2022-09-29T22:43:53.531Z,14.65
2022-09-29T22:46:21.542Z,13.25
2022-09-29T22:48:48.156Z,14.13
2022-09-29T22:51:14.942Z,13.25
2022-09-29T22:53:42.031Z,13.88
2022-09-29T22:56:14.403Z,13.82
2022-09-29T22:58:44.853Z,13.93
2022-09-29T23:01:13.911Z,12.00
2022-09-29T23:03:42.096Z,12.88
2022-09-29T23:06:09.386Z,12.73
2022-09-29T23:08:36.881Z,13.25
2022-09-29T23:11:07.954Z,14.85
2022-09-29T23:13:37.033Z,16.10
2022-09-29T23:16:11.946Z,15.43
2022-09-29T23:18:45.852Z,14.30
2022-09-29T23:21:15.178Z,12.65
2022-09-29T23:23:41.994Z,16.65
2022-09-29T23:26:09.132Z,14.30
2022-09-29T23:28:35.903Z,15.13
2022-09-29T23:31:04.364Z,13.27
2022-09-29T23:33:31.459Z,14.85
2022-09-29T23:36:14.729Z,14.68
2022-09-29T23:39:02.234Z,15.10
2022-09-29T23:41:30.363Z,14.30
2022-09-29T23:43:59.066Z,15.75
2022-09-29T23:46:27.311Z,14.38
2022-09-29T23:48:53.866Z,12.93
2022-09-29T23:51:20.423Z,14.83
2022-09-29T23:53:47.037Z,14.88
2022-09-29T23:56:13.563Z,14.73
2022-09-29T23:58:40.124Z,14.07
